Time;durP1;ratioP1;P1;durP2;ratioP2;P2;SDS_P1;SDS_P2;PMS_P1;PMS_P2;Temp;Humidity;BMP_temperature;BMP_pressure;BME280_temperature;BME280_humidity;BME280_pressure;Samples;Min_cycle;Max_cycle;Signal;HPM_P1;HPM_P2
2022/11/25 00:01:25;;;;;;;12.75;4.18;;;7.80;99.90;;;;;;5040948;28;20308;-28
2022/11/25 00:03:54;;;;;;;14.95;4.45;;;7.80;99.90;;;;;;5042506;28;20037;-30
2022/11/25 00:06:22;;;;;;;10.57;3.90;;;7.80;99.90;;;;;;5040582;28;20042;-29
2022/11/25 00:08:54;;;;;;;9.88;3.78;;;7.80;99.90;;;;;;5040326;28;20120;-29
2022/11/25 00:11:19;;;;;;;14.07;5.05;;;7.80;99.90;;;;;;5039102;28;20183;-30
2022/11/25 00:13:46;;;;;;;18.40;4.35;;;7.80;99.90;;;;;;5017101;28;20128;-29
2022/11/25 00:16:14;;;;;;;15.10;5.03;;;7.80;99.90;;;;;;5039094;28;20037;-28
2022/11/25 00:18:44;;;;;;;16.63;4.35;;;7.80;99.90;;;;;;5028958;28;20042;-29
2022/11/25 00:21:13;;;;;;;12.00;4.15;;;7.90;99.90;;;;;;5033667;28;20036;-28
2022/11/25 00:23:39;;;;;;;11.73;4.60;;;7.90;99.90;;;;;;5032816;28;20041;-28
2022/11/25 00:26:15;;;;;;;11.35;3.85;;;7.90;99.90;;;;;;5033692;28;20043;-29
2022/11/25 00:28:43;;;;;;;17.30;4.60;;;8.00;99.90;;;;;;5039624;28;20033;-28
2022/11/25 00:31:15;;;;;;;13.27;4.47;;;8.00;99.90;;;;;;5033519;28;20075;-29
2022/11/25 00:33:41;;;;;;;12.77;4.22;;;8.00;99.90;;;;;;5030813;28;20044;-29
2022/11/25 00:36:15;;;;;;;13.23;3.97;;;8.00;99.90;;;;;;5034084;28;20076;-30
2022/11/25 00:38:40;;;;;;;11.57;3.83;;;8.10;99.90;;;;;;5028234;28;20036;-30
2022/11/25 00:46:35;;;;;;;15.63;4.18;;;8.20;99.90;;;;;;5033417;28;20099;-29
2022/11/25 00:49:00;;;;;;;13.57;4.57;;;8.20;99.90;;;;;;5034122;28;20402;-29
2022/11/25 00:51:26;;;;;;;13.27;4.10;;;8.20;99.90;;;;;;5028097;28;20040;-30
2022/11/25 00:53:52;;;;;;;11.15;3.60;;;8.20;99.90;;;;;;5033077;28;20600;-29
2022/11/25 00:56:18;;;;;;;13.90;3.85;;;8.10;99.90;;;;;;5032749;28;20131;-31
2022/11/25 00:58:44;;;;;;;11.57;3.80;;;8.10;99.90;;;;;;5033009;28;20065;-28
2022/11/25 01:01:11;;;;;;;12.15;4.22;;;8.10;99.90;;;;;;5031482;28;20060;-29
2022/11/25 01:03:37;;;;;;;13.27;4.70;;;8.00;99.90;;;;;;5019925;28;20045;-28
2022/11/25 01:06:05;;;;;;;9.82;3.78;;;8.10;99.90;;;;;;5037554;28;20490;-29
2022/11/25 01:08:32;;;;;;;14.27;4.25;;;8.00;99.90;;;;;;5044164;28;20116;-28
2022/11/25 01:11:03;;;;;;;12.65;3.95;;;8.10;99.90;;;;;;5027679;28;20048;-27
2022/11/25 01:13:29;;;;;;;16.33;3.75;;;8.10;99.90;;;;;;5035536;28;20037;-29
2022/11/25 01:15:54;;;;;;;12.00;3.53;;;8.10;99.90;;;;;;5038903;28;20038;-28
2022/11/25 01:18:20;;;;;;;10.82;3.60;;;8.10;99.90;;;;;;5038194;28;20029;-28
2022/11/25 01:20:46;;;;;;;12.38;3.50;;;8.10;99.90;;;;;;5032005;28;20092;-30
2022/11/25 01:23:12;;;;;;;13.45;3.70;;;8.10;99.90;;;;;;5031679;28;20038;-29
2022/11/25 01:25:39;;;;;;;13.75;3.88;;;8.20;99.90;;;;;;5037595;28;20029;-29
2022/11/25 01:28:05;;;;;;;11.75;3.33;;;8.30;99.90;;;;;;5023843;28;20037;-29
2022/11/25 01:30:32;;;;;;;13.13;3.60;;;8.40;99.90;;;;;;5015007;28;20052;-29
2022/11/25 01:32:58;;;;;;;14.50;3.75;;;8.40;99.90;;;;;;5035749;28;20052;-29
2022/11/25 01:35:24;;;;;;;9.27;3.78;;;8.40;99.90;;;;;;5037718;28;20487;-30
2022/11/25 01:37:49;;;;;;;13.30;3.90;;;8.40;99.90;;;;;;5035386;28;20574;-30
2022/11/25 01:40:16;;;;;;;7.93;3.53;;;8.50;99.90;;;;;;5034902;28;20438;-29
2022/11/25 01:42:44;;;;;;;11.32;3.25;;;8.50;99.90;;;;;;5041987;28;20068;-27
2022/11/25 01:45:22;;;;;;;11.23;3.85;;;8.50;99.90;;;;;;5034692;28;20048;-29
2022/11/25 01:47:50;;;;;;;14.20;4.00;;;8.60;99.90;;;;;;5025560;28;20044;-29
2022/11/25 01:50:20;;;;;;;11.52;3.65;;;8.50;99.90;;;;;;5033129;28;20510;-30
2022/11/25 01:52:49;;;;;;;9.05;3.80;;;8.60;99.90;;;;;;5031344;28;20076;-30
2022/11/25 01:55:21;;;;;;;13.65;3.88;;;8.60;99.90;;;;;;5029578;28;20569;-28
2022/11/25 01:57:54;;;;;;;10.82;3.97;;;8.60;99.90;;;;;;5031830;28;20099;-28
2022/11/25 02:00:21;;;;;;;16.63;4.18;;;8.60;99.90;;;;;;5032011;28;20045;-28
2022/11/25 02:02:48;;;;;;;17.60;4.47;;;8.50;99.90;;;;;;5031478;28;20475;-27
2022/11/25 02:05:18;;;;;;;18.77;4.45;;;8.50;99.90;;;;;;5039132;28;20505;-31
2022/11/25 02:07:47;;;;;;;13.75;4.40;;;8.50;99.90;;;;;;5037044;28;20501;-28
2022/11/25 02:10:21;;;;;;;13.18;4.60;;;8.50;99.90;;;;;;5024356;28;20037;-28
2022/11/25 02:12:47;;;;;;;18.55;5.28;;;8.40;99.90;;;;;;5050662;28;20037;-29
2022/11/25 02:15:15;;;;;;;11.32;3.55;;;8.40;99.90;;;;;;5044056;28;20379;-29
2022/11/25 02:17:42;;;;;;;17.27;4.70;;;8.40;99.90;;;;;;5047115;28;21186;-28
2022/11/25 02:20:11;;;;;;;12.25;4.40;;;8.30;99.90;;;;;;5031893;28;20094;-27
2022/11/25 02:23:16;;;;;;;15.18;5.00;;;8.30;99.90;;;;;;5037369;28;20249;-28
2022/11/25 02:25:42;;;;;;;;;;;8.30;99.90;;;;;;5031559;28;20064;-29
2022/11/25 02:28:26;;;;;;;15.10;4.85;;;8.30;99.90;;;;;;5030552;28;20009;-29
2022/11/25 02:30:53;;;;;;;15.07;4.65;;;8.30;99.90;;;;;;5030566;28;20560;-28
2022/11/25 02:33:19;;;;;;;17.05;4.78;;;8.20;99.90;;;;;;5037196;28;20095;-28
2022/11/25 02:35:53;;;;;;;16.95;5.10;;;8.30;99.90;;;;;;5031629;28;20061;-27
2022/11/25 02:38:35;;;;;;;12.05;4.72;;;8.20;99.90;;;;;;5037119;28;20425;-28
2022/11/25 02:41:10;;;;;;;15.77;4.68;;;8.20;99.90;;;;;;5030802;28;20044;-29
2022/11/25 02:43:37;;;;;;;14.85;5.03;;;8.30;99.90;;;;;;5039396;28;20071;-29
2022/11/25 02:46:17;;;;;;;16.58;4.75;;;8.20;99.90;;;;;;5035672;28;20087;-29
2022/11/25 02:48:42;;;;;;;16.73;5.47;;;8.30;99.90;;;;;;5032062;28;20483;-31
2022/11/25 02:51:12;;;;;;;21.73;4.78;;;8.30;99.90;;;;;;5034762;28;20071;-29
2022/11/25 02:53:37;;;;;;;14.80;5.15;;;8.30;99.90;;;;;;5034750;28;20033;-28
2022/11/25 02:56:03;;;;;;;13.45;4.45;;;8.30;99.90;;;;;;5029146;28;20037;-29
2022/11/25 02:58:29;;;;;;;14.00;4.70;;;8.30;99.90;;;;;;5032503;28;20029;-28
2022/11/25 03:00:55;;;;;;;11.27;4.43;;;8.30;99.90;;;;;;5037943;28;20059;-28
2022/11/25 03:03:21;;;;;;;16.67;5.00;;;8.30;99.90;;;;;;5036405;28;20036;-28
2022/11/25 03:05:47;;;;;;;15.95;4.93;;;8.30;99.90;;;;;;5032988;28;20029;-29
2022/11/25 03:08:13;;;;;;;15.00;5.07;;;8.30;99.90;;;;;;5033134;28;20056;-28
2022/11/25 03:10:39;;;;;;;18.58;4.88;;;8.30;99.90;;;;;;5030365;28;20120;-28
2022/11/25 03:13:06;;;;;;;20.35;5.78;;;8.30;99.90;;;;;;5029663;28;20120;-28
2022/11/25 03:15:33;;;;;;;18.20;5.40;;;8.30;99.90;;;;;;5032658;28;20041;-28
2022/11/25 03:17:59;;;;;;;13.63;4.95;;;8.30;99.90;;;;;;5032307;28;20390;-29
2022/11/25 03:20:24;;;;;;;18.73;5.53;;;8.30;99.90;;;;;;5029713;28;20037;-28
2022/11/25 03:22:50;;;;;;;17.48;5.15;;;8.30;99.90;;;;;;5034864;28;20033;-29
2022/11/25 03:25:16;;;;;;;16.73;5.05;;;8.30;99.90;;;;;;5035701;28;20038;-29
2022/11/25 03:27:43;;;;;;;14.85;5.20;;;8.30;99.90;;;;;;5031798;28;20498;-29
2022/11/25 03:30:12;;;;;;;16.33;5.18;;;8.30;99.90;;;;;;5031975;28;20117;-27
2022/11/25 03:32:38;;;;;;;13.90;5.40;;;8.20;99.90;;;;;;5033015;28;20045;-28
2022/11/25 03:35:05;;;;;;;18.30;5.03;;;8.30;99.90;;;;;;5032610;28;20049;-28
2022/11/25 03:37:30;;;;;;;20.27;5.40;;;8.30;99.90;;;;;;5032387;28;20119;-28
2022/11/25 03:39:56;;;;;;;12.35;5.32;;;8.30;99.90;;;;;;5030278;28;20515;-29
2022/11/25 03:42:22;;;;;;;17.20;5.50;;;8.20;99.90;;;;;;5030865;28;20418;-28
2022/11/25 03:44:47;;;;;;;14.23;5.40;;;8.30;99.90;;;;;;5030283;28;20091;-29
2022/11/25 03:47:13;;;;;;;18.52;5.70;;;8.30;99.90;;;;;;5037781;28;20110;-29
2022/11/25 03:49:39;;;;;;;15.95;5.13;;;8.20;99.90;;;;;;5029828;28;20030;-28
2022/11/25 03:52:05;;;;;;;22.42;6.43;;;8.20;99.90;;;;;;5036205;28;20559;-28
2022/11/25 03:54:30;;;;;;;13.10;5.32;;;8.20;99.90;;;;;;5029850;28;20064;-29
2022/11/25 03:56:56;;;;;;;18.75;6.40;;;8.30;99.90;;;;;;5030111;28;20461;-29
2022/11/25 03:59:22;;;;;;;20.98;6.03;;;8.20;99.90;;;;;;5035244;28;20112;-28
2022/11/25 04:01:47;;;;;;;18.42;5.35;;;8.30;99.90;;;;;;5039665;28;20419;-29
2022/11/25 04:04:13;;;;;;;17.08;5.78;;;8.30;99.90;;;;;;5029187;28;20088;-29
2022/11/25 04:06:39;;;;;;;17.95;5.57;;;8.30;99.90;;;;;;5029505;28;20026;-29
2022/11/25 04:09:06;;;;;;;17.85;5.55;;;8.30;99.90;;;;;;5029339;28;20342;-28
2022/11/25 04:14:16;;;;;;;;;;;8.40;99.90;;;;;;5038278;28;20041;-29
2022/11/25 04:16:42;;;;;;;13.20;4.93;;;8.40;99.90;;;;;;5044137;28;19925;-28
2022/11/25 04:19:08;;;;;;;11.35;4.50;;;8.40;99.90;;;;;;5038156;28;20405;-31
2022/11/25 04:21:33;;;;;;;16.45;5.03;;;8.40;99.90;;;;;;5030493;28;20046;-28
2022/11/25 04:23:59;;;;;;;19.60;5.85;;;8.40;99.90;;;;;;5043094;28;20037;-27
2022/11/25 04:26:25;;;;;;;11.30;5.20;;;8.40;99.90;;;;;;5021502;28;20040;-29
2022/11/25 04:28:54;;;;;;;20.38;5.75;;;8.40;99.90;;;;;;5037810;28;20124;-28
2022/11/25 04:31:20;;;;;;;12.63;5.72;;;8.40;99.90;;;;;;5028887;28;20041;-29
2022/11/25 04:33:45;;;;;;;15.32;5.05;;;8.50;99.90;;;;;;5033190;28;20124;-28
2022/11/25 04:36:11;;;;;;;14.02;5.40;;;8.50;99.90;;;;;;5015746;28;20041;-28
2022/11/25 04:38:37;;;;;;;16.17;5.95;;;8.50;99.90;;;;;;5040223;28;20041;-30
2022/11/25 04:41:02;;;;;;;15.07;5.65;;;8.50;99.90;;;;;;5043845;28;20083;-28
2022/11/25 04:43:28;;;;;;;15.20;5.80;;;8.50;99.90;;;;;;5039620;28;20120;-29
2022/11/25 04:45:54;;;;;;;18.05;5.90;;;8.40;99.90;;;;;;5024448;28;20041;-27
2022/11/25 04:48:20;;;;;;;11.45;5.20;;;8.50;99.90;;;;;;5041275;28;20037;-28
2022/11/25 04:50:46;;;;;;;13.00;5.72;;;8.50;99.90;;;;;;5036166;28;20036;-29
2022/11/25 04:53:11;;;;;;;16.65;6.53;;;8.50;99.90;;;;;;5036033;28;20116;-28
2022/11/25 04:55:37;;;;;;;17.50;6.28;;;8.50;99.90;;;;;;5016063;28;20539;-30
2022/11/25 04:58:03;;;;;;;19.70;6.03;;;8.50;99.90;;;;;;5032578;28;20033;-29
2022/11/25 05:00:29;;;;;;;16.33;6.30;;;8.50;99.90;;;;;;5035740;28;20033;-28
2022/11/25 05:02:54;;;;;;;17.38;5.95;;;8.50;99.90;;;;;;5037944;28;20481;-31
2022/11/25 05:05:20;;;;;;;19.20;7.13;;;8.50;99.90;;;;;;5016998;28;20052;-28
2022/11/25 05:07:46;;;;;;;18.48;7.03;;;8.50;99.90;;;;;;5021716;28;20467;-29
2022/11/25 05:10:12;;;;;;;15.70;6.50;;;8.50;99.90;;;;;;5035169;28;20041;-29
2022/11/25 05:12:38;;;;;;;22.50;7.10;;;8.40;99.90;;;;;;5037558;28;20033;-28
2022/11/25 05:15:05;;;;;;;19.38;6.72;;;8.40;99.90;;;;;;5031555;28;20048;-29
2022/11/25 05:17:31;;;;;;;14.23;6.55;;;8.40;99.90;;;;;;5034056;28;20033;-29
2022/11/25 05:19:57;;;;;;;15.75;6.97;;;8.40;99.90;;;;;;5035788;28;20037;-29
2022/11/25 05:22:29;;;;;;;17.45;7.32;;;8.40;99.90;;;;;;5036123;28;20041;-29
2022/11/25 05:24:56;;;;;;;13.25;7.07;;;8.40;99.90;;;;;;5033612;28;20042;-30
2022/11/25 05:27:22;;;;;;;17.08;7.32;;;8.40;99.90;;;;;;5025786;28;20053;-29
2022/11/25 05:29:48;;;;;;;16.60;6.75;;;8.40;99.90;;;;;;5024315;28;20038;-30
2022/11/25 05:32:14;;;;;;;14.23;7.20;;;8.40;99.90;;;;;;5032100;28;20531;-31
2022/11/25 05:34:41;;;;;;;20.58;8.15;;;8.40;99.90;;;;;;5026777;28;20033;-30
2022/11/25 05:37:08;;;;;;;18.05;7.10;;;8.30;99.90;;;;;;5034273;28;20037;-30
2022/11/25 05:39:34;;;;;;;20.10;7.60;;;8.30;99.90;;;;;;5035799;28;20075;-30
2022/11/25 05:42:00;;;;;;;22.15;7.93;;;8.30;99.90;;;;;;5022607;28;20040;-29
2022/11/25 05:44:26;;;;;;;18.58;8.10;;;8.30;99.90;;;;;;5034282;28;20041;-28
2022/11/25 05:46:52;;;;;;;20.00;7.60;;;8.30;99.90;;;;;;5033655;28;20064;-29
2022/11/25 05:49:18;;;;;;;18.23;8.10;;;8.30;99.90;;;;;;5039289;28;20041;-31
2022/11/25 05:51:44;;;;;;;21.50;9.05;;;8.30;99.90;;;;;;5033623;28;20037;-31
2022/11/25 05:54:11;;;;;;;17.05;8.35;;;8.30;99.90;;;;;;5034147;28;20040;-30
2022/11/25 05:56:36;;;;;;;16.70;8.27;;;8.30;99.90;;;;;;5033850;28;20040;-30
2022/11/25 05:59:03;;;;;;;18.17;8.02;;;8.30;99.90;;;;;;5032773;28;20034;-30
2022/11/25 06:01:29;;;;;;;17.35;7.82;;;8.30;99.90;;;;;;5032842;28;20130;-30
2022/11/25 06:03:59;;;;;;;17.30;8.07;;;8.30;99.90;;;;;;5033009;28;20076;-29
2022/11/25 06:06:25;;;;;;;16.98;8.50;;;8.30;99.90;;;;;;5033239;28;20114;-32
2022/11/25 06:08:51;;;;;;;19.17;8.27;;;8.30;99.90;;;;;;5040145;28;20056;-31
2022/11/25 06:11:17;;;;;;;16.15;8.50;;;8.40;99.90;;;;;;5034396;28;20045;-30
2022/11/25 06:13:43;;;;;;;15.95;8.18;;;8.40;99.90;;;;;;5032060;28;20055;-31
2022/11/25 06:16:14;;;;;;;16.02;8.63;;;8.40;99.90;;;;;;5023994;28;20042;-30
2022/11/25 06:18:40;;;;;;;16.83;8.70;;;8.40;99.90;;;;;;5028670;28;20108;-29
2022/11/25 06:21:07;;;;;;;17.05;8.52;;;8.30;99.90;;;;;;5006653;28;20041;-30
2022/11/25 06:23:34;;;;;;;18.65;9.07;;;8.30;99.90;;;;;;5028322;28;20046;-29
2022/11/25 06:26:19;;;;;;;18.90;8.18;;;8.40;99.90;;;;;;5019046;28;20470;-29
2022/11/25 06:28:46;;;;;;;20.08;8.27;;;8.40;99.90;;;;;;5018424;28;20052;-30
2022/11/25 06:31:17;;;;;;;20.42;8.45;;;8.40;99.90;;;;;;5024116;28;20476;-29
2022/11/25 06:33:46;;;;;;;20.27;8.52;;;8.30;99.90;;;;;;5022407;28;20088;-31
2022/11/25 06:36:15;;;;;;;20.10;8.20;;;8.30;99.90;;;;;;5031217;28;20092;-29
2022/11/25 06:38:45;;;;;;;21.52;7.95;;;8.30;99.90;;;;;;5022626;28;20033;-28
2022/11/25 06:41:12;;;;;;;16.63;8.20;;;8.30;99.90;;;;;;5031038;28;20046;-30
2022/11/25 06:43:38;;;;;;;21.48;7.95;;;8.30;99.90;;;;;;5030399;28;20048;-28
2022/11/25 06:46:07;;;;;;;16.65;8.00;;;8.30;99.90;;;;;;5013958;28;20041;-31
2022/11/25 06:48:33;;;;;;;16.63;8.40;;;8.30;99.90;;;;;;5038408;28;20037;-28
2022/11/25 06:51:01;;;;;;;14.80;8.05;;;8.30;99.90;;;;;;5030461;28;20069;-28
2022/11/25 06:53:27;;;;;;;17.73;8.30;;;8.30;99.90;;;;;;5032371;28;20060;-29
2022/11/25 06:56:07;;;;;;;20.10;8.95;;;8.30;99.90;;;;;;5034073;28;20312;-29
2022/11/25 06:58:34;;;;;;;16.48;8.65;;;8.30;99.90;;;;;;5038840;28;20120;-30
2022/11/25 07:01:02;;;;;;;18.20;8.43;;;8.30;99.90;;;;;;5039479;28;20051;-30
2022/11/25 07:03:28;;;;;;;16.40;8.77;;;8.30;99.90;;;;;;5030983;28;20033;-29
2022/11/25 07:05:58;;;;;;;22.65;9.65;;;8.30;99.90;;;;;;5039553;28;20080;-31
2022/11/25 07:08:25;;;;;;;18.38;12.02;;;8.30;99.90;;;;;;5036881;28;20072;-30
2022/11/25 07:10:52;;;;;;;23.10;11.70;;;8.30;99.90;;;;;;5029436;28;20402;-30
2022/11/25 07:13:18;;;;;;;22.30;11.10;;;8.30;99.90;;;;;;5036710;28;20041;-29
2022/11/25 07:15:44;;;;;;;23.35;11.88;;;8.30;99.90;;;;;;5031173;28;20529;-29
2022/11/25 07:18:10;;;;;;;19.92;11.00;;;8.20;99.90;;;;;;5038512;28;20069;-30
2022/11/25 07:20:35;;;;;;;16.63;7.75;;;8.20;99.90;;;;;;5036441;28;20117;-29
2022/11/25 07:23:01;;;;;;;17.83;9.90;;;8.20;99.90;;;;;;5029806;28;20037;-29
2022/11/25 07:25:27;;;;;;;18.85;10.27;;;8.20;99.90;;;;;;5028842;28;20037;-29
2022/11/25 07:27:53;;;;;;;14.43;8.15;;;8.20;99.90;;;;;;5028111;28;20029;-29
2022/11/25 07:30:19;;;;;;;18.00;8.57;;;8.20;99.90;;;;;;5029718;28;20045;-29
2022/11/25 07:32:44;;;;;;;13.80;8.32;;;8.20;99.90;;;;;;5037373;28;20048;-30
2022/11/25 07:35:10;;;;;;;16.98;9.35;;;8.10;99.90;;;;;;5035413;28;20418;-30
2022/11/25 07:37:36;;;;;;;27.10;12.57;;;8.10;99.90;;;;;;5030578;28;20041;-29
2022/11/25 07:40:02;;;;;;;18.77;9.88;;;8.10;99.90;;;;;;5035743;28;20437;-30
2022/11/25 07:42:28;;;;;;;17.00;10.85;;;8.00;99.90;;;;;;5028302;28;20240;-29
2022/11/25 07:44:53;;;;;;;19.42;11.00;;;8.00;99.90;;;;;;5035492;28;20167;-29
2022/11/25 07:47:19;;;;;;;21.48;10.82;;;7.90;99.90;;;;;;5035102;28;20029;-30
2022/11/25 07:49:45;;;;;;;15.63;8.70;;;7.90;99.90;;;;;;5029068;28;20040;-30
2022/11/25 07:52:10;;;;;;;13.02;8.50;;;7.90;99.90;;;;;;5031293;28;20502;-30
2022/11/25 07:54:36;;;;;;;16.83;11.13;;;7.80;99.90;;;;;;5034150;28;20042;-31
2022/11/25 07:57:02;;;;;;;17.60;9.50;;;7.80;99.90;;;;;;5030524;28;20065;-30
2022/11/25 07:59:28;;;;;;;15.35;9.15;;;7.80;99.90;;;;;;5034893;28;20483;-31
2022/11/25 08:01:54;;;;;;;19.45;8.73;;;7.80;99.90;;;;;;5034619;28;20084;-29
2022/11/25 08:04:20;;;;;;;14.00;8.50;;;7.80;99.90;;;;;;5030461;28;20040;-31
2022/11/25 08:06:49;;;;;;;16.30;7.70;;;7.70;99.90;;;;;;5037114;28;20041;-31
2022/11/25 08:09:18;;;;;;;16.88;7.28;;;7.70;99.90;;;;;;5034893;28;20537;-31
2022/11/25 08:11:45;;;;;;;17.10;8.43;;;7.70;99.90;;;;;;5030357;28;20044;-31
2022/11/25 08:14:11;;;;;;;20.10;8.35;;;7.70;99.90;;;;;;5040966;28;20037;-30
2022/11/25 08:16:37;;;;;;;17.33;7.70;;;7.70;99.90;;;;;;5036111;28;20467;-32
2022/11/25 08:19:05;;;;;;;14.15;7.30;;;7.60;99.90;;;;;;5035637;28;20038;-32
2022/11/25 08:21:31;;;;;;;16.88;7.38;;;7.70;99.90;;;;;;5029822;28;20037;-31
2022/11/25 08:23:57;;;;;;;12.20;6.88;;;7.60;99.90;;;;;;5025690;28;20045;-30
2022/11/25 08:26:29;;;;;;;17.30;7.63;;;7.60;99.90;;;;;;5033041;28;20037;-30
2022/11/25 08:28:56;;;;;;;13.82;7.25;;;7.60;99.90;;;;;;5035711;28;20080;-32
2022/11/25 08:31:34;;;;;;;14.48;7.82;;;7.70;99.90;;;;;;5025448;28;20060;-30
2022/11/25 08:34:00;;;;;;;19.20;10.38;;;7.70;99.90;;;;;;5030096;28;20037;-32
2022/11/25 08:36:27;;;;;;;14.38;9.00;;;7.90;99.90;;;;;;5029020;28;20502;-30
2022/11/25 08:38:58;;;;;;;18.33;7.90;;;7.90;99.90;;;;;;5032684;28;20551;-31
2022/11/25 08:41:29;;;;;;;15.65;7.60;;;8.00;99.90;;;;;;5040513;28;20055;-31
2022/11/25 08:43:57;;;;;;;14.88;7.28;;;8.10;99.90;;;;;;5033748;28;20030;-32
2022/11/25 08:46:27;;;;;;;14.15;8.00;;;8.20;99.90;;;;;;5040159;28;20032;-33
2022/11/25 08:48:55;;;;;;;11.52;6.55;;;8.20;99.90;;;;;;5038649;28;20037;-33
2022/11/25 08:51:27;;;;;;;14.73;6.57;;;8.30;99.90;;;;;;5033581;28;20041;-32
2022/11/25 08:53:53;;;;;;;14.13;6.35;;;8.30;99.90;;;;;;5035007;28;20037;-31
2022/11/25 08:56:21;;;;;;;10.73;6.15;;;8.30;99.90;;;;;;5051752;28;20095;-33
2022/11/25 08:58:48;;;;;;;12.32;6.93;;;8.40;99.90;;;;;;5035640;28;20322;-34
2022/11/25 09:01:15;;;;;;;34.58;13.75;;;8.50;99.90;;;;;;5032145;28;20041;-32
2022/11/25 09:03:44;;;;;;;23.83;11.00;;;8.60;99.90;;;;;;5033544;28;20033;-31
2022/11/25 09:06:11;;;;;;;16.83;6.70;;;8.70;99.90;;;;;;5034615;28;20095;-33
2022/11/25 09:08:39;;;;;;;13.45;7.10;;;8.90;99.90;;;;;;5035876;28;20041;-32
2022/11/25 09:11:05;;;;;;;13.07;6.72;;;9.30;99.90;;;;;;5035438;28;20044;-32
2022/11/25 09:13:31;;;;;;;11.65;6.47;;;9.70;99.90;;;;;;5035356;28;20037;-32
2022/11/25 09:15:57;;;;;;;12.57;6.10;;;10.00;99.90;;;;;;5033252;28;20723;-33
2022/11/25 09:18:25;;;;;;;10.38;5.78;;;10.40;99.90;;;;;;5033466;28;20490;-33
2022/11/25 09:20:52;;;;;;;9.23;6.18;;;10.80;99.90;;;;;;5035182;28;20120;-32
2022/11/25 09:23:19;;;;;;;9.15;5.82;;;11.30;99.90;;;;;;5032718;28;20073;-31
2022/11/25 09:25:52;;;;;;;18.10;9.68;;;11.70;99.90;;;;;;5034412;28;20042;-33
2022/11/25 09:28:19;;;;;;;13.07;8.07;;;12.00;99.90;;;;;;5031181;28;20029;-30
2022/11/25 09:30:44;;;;;;;9.60;6.07;;;12.40;99.90;;;;;;5032681;28;20033;-34
2022/11/25 09:33:10;;;;;;;10.20;6.88;;;12.60;99.90;;;;;;5034253;28;20391;-35
2022/11/25 09:35:36;;;;;;;18.48;11.05;;;12.90;99.90;;;;;;5035172;28;20441;-33
2022/11/25 09:38:02;;;;;;;8.18;5.75;;;13.10;99.90;;;;;;5033037;28;20041;-31
2022/11/25 09:40:46;;;;;;;8.52;7.45;;;13.40;99.90;;;;;;5018788;28;20134;-30
2022/11/25 09:46:57;;;;;;;13.85;10.65;;;14.10;99.90;;;;;;5029605;28;20038;-33
2022/11/25 09:50:01;;;;;;;13.48;7.82;;;14.40;99.90;;;;;;5028916;28;20069;-31
2022/11/25 09:52:34;;;;;;;;;;;14.60;99.90;;;;;;5025137;28;20135;-33
2022/11/25 09:55:29;;;;;;;10.15;6.03;;;14.60;99.90;;;;;;5030034;28;19924;-32
2022/11/25 09:58:15;;;;;;;8.20;4.28;;;14.50;99.90;;;;;;5032877;28;20522;-32
2022/11/25 10:00:44;;;;;;;5.25;3.85;;;14.50;99.90;;;;;;5030402;28;20039;-31
2022/11/25 10:03:25;;;;;;;7.85;4.38;;;14.60;99.90;;;;;;5023035;28;20037;-32
2022/11/25 10:06:22;;;;;;;6.65;4.80;;;14.70;99.90;;;;;;5041695;28;20395;-35
2022/11/25 10:09:09;;;;;;;10.73;6.00;;;14.80;99.90;;;;;;5027348;28;20048;-32
2022/11/25 10:11:53;;;;;;;7.78;4.00;;;14.80;99.90;;;;;;5025087;28;20084;-31
2022/11/25 10:14:45;;;;;;;9.18;4.50;;;14.50;99.90;;;;;;5040079;28;20037;-33
2022/11/25 10:17:21;;;;;;;4.88;3.28;;;14.30;99.90;;;;;;5026843;28;20037;-32
2022/11/25 10:19:54;;;;;;;11.68;5.22;;;14.10;99.90;;;;;;5027412;28;20037;-31
2022/11/25 10:22:27;;;;;;;8.90;3.42;;;13.90;99.90;;;;;;5031208;28;20463;-31
2022/11/25 10:25:19;;;;;;;6.05;3.60;;;13.80;99.90;;;;;;5034889;28;20029;-31
2022/11/25 10:27:48;;;;;;;5.00;3.08;;;13.90;99.90;;;;;;5035417;28;20037;-34
2022/11/25 10:30:23;;;;;;;9.25;4.05;;;14.50;99.90;;;;;;5041523;28;20035;-34
2022/11/25 10:33:08;;;;;;;8.45;4.50;;;14.90;99.90;;;;;;5032197;28;20030;-32
2022/11/25 10:36:12;;;;;;;9.52;5.30;;;15.30;99.90;;;;;;5031249;28;20053;-31
2022/11/25 10:38:51;;;;;;;10.43;4.07;;;15.70;99.90;;;;;;5015523;28;20041;-32
2022/11/25 10:41:20;;;;;;;10.32;4.47;;;16.20;99.90;;;;;;5040682;28;20049;-32
2022/11/25 10:43:47;;;;;;;7.85;4.47;;;16.50;99.90;;;;;;5031178;28;20065;-33
2022/11/25 10:46:26;;;;;;;9.38;4.72;;;16.60;99.90;;;;;;5036395;28;20072;-33
2022/11/25 10:49:14;;;;;;;4.57;3.10;;;16.70;99.90;;;;;;5026856;28;20447;-34
2022/11/25 10:51:46;;;;;;;7.53;3.67;;;16.90;99.90;;;;;;5028758;28;20045;-32
2022/11/25 10:54:26;;;;;;;8.57;4.82;;;17.00;99.90;;;;;;5034392;28;20072;-32
2022/11/25 10:56:56;;;;;;;5.70;3.33;;;17.10;99.90;;;;;;5039799;28;20482;-33
2022/11/25 10:59:41;;;;;;;5.70;3.05;;;17.30;99.90;;;;;;5030946;28;20071;-33
2022/11/25 11:02:16;;;;;;;7.07;3.35;;;17.80;99.90;;;;;;5033654;28;20068;-32
2022/11/25 11:05:08;;;;;;;7.32;3.65;;;17.80;99.90;;;;;;5029951;28;20053;-33
2022/11/25 11:07:40;;;;;;;5.78;3.05;;;17.80;99.90;;;;;;5023769;28;20049;-31
2022/11/25 11:10:26;;;;;;;6.50;4.07;;;17.80;99.90;;;;;;5031267;28;20486;-32
2022/11/25 11:12:59;;;;;;;7.10;3.10;;;17.60;99.90;;;;;;5027109;28;20045;-34
2022/11/25 11:15:25;;;;;;;6.10;2.65;;;17.40;99.90;;;;;;5030116;28;20042;-31
2022/11/25 11:17:52;;;;;;;5.90;3.10;;;17.30;99.90;;;;;;5035733;28;20045;-34
2022/11/25 11:20:24;;;;;;;6.97;3.55;;;17.20;99.90;;;;;;5035277;28;20037;-33
2022/11/25 11:23:10;;;;;;;6.70;3.42;;;17.40;99.90;;;;;;5024293;28;20064;-33
2022/11/25 11:25:38;;;;;;;10.00;3.47;;;17.60;99.90;;;;;;5036180;28;20076;-34
2022/11/25 11:28:37;;;;;;;7.63;3.17;;;17.90;99.90;;;;;;5035845;28;20788;-32
2022/11/25 11:31:17;;;;;;;6.97;3.70;;;18.20;99.90;;;;;;5030209;28;20034;-31
2022/11/25 11:33:46;;;;;;;8.10;2.92;;;18.20;99.90;;;;;;5036243;28;20450;-32
2022/11/25 11:36:33;;;;;;;6.07;3.00;;;18.60;99.90;;;;;;5032302;28;20393;-33
2022/11/25 11:39:08;;;;;;;7.70;2.75;;;18.90;99.90;;;;;;5028653;28;20030;-34
2022/11/25 11:41:54;;;;;;;6.07;3.30;;;19.00;99.90;;;;;;5035393;28;20045;-33
2022/11/25 11:44:35;;;;;;;5.95;2.83;;;19.20;99.90;;;;;;5033505;28;20033;-32
2022/11/25 11:51:22;;;;;;;6.40;3.00;;;19.60;99.90;;;;;;5023923;28;20113;-30
2022/11/25 11:54:07;;;;;;;7.18;3.33;;;18.70;99.30;;;;;;5051096;28;20055;-29
2022/11/25 11:56:37;;;;;;;5.80;3.50;;;17.90;99.90;;;;;;5033059;28;20072;-29
2022/11/25 11:59:09;;;;;;;6.45;3.30;;;18.00;99.90;;;;;;5040311;28;20125;-30
2022/11/25 12:02:11;;;;;;;7.53;2.63;;;18.20;99.90;;;;;;5042452;28;20521;-30
2022/11/25 12:05:05;;;;;;;8.93;3.83;;;18.30;99.90;;;;;;5040887;28;20080;-28
2022/11/25 12:07:51;;;;;;;6.68;4.40;;;18.20;99.90;;;;;;5056301;28;20032;-29
2022/11/25 12:10:26;;;;;;;6.20;2.83;;;17.50;99.90;;;;;;5037509;28;20072;-29
2022/11/25 12:13:17;;;;;;;12.05;5.05;;;16.90;99.90;;;;;;5037215;28;20037;-28
2022/11/25 12:16:41;;;;;;;17.00;8.57;;;16.50;99.90;;;;;;5020407;28;20336;-29
2022/11/25 12:19:28;;;;;;;9.98;5.38;;;15.90;99.90;;;;;;5075623;28;20095;-29
2022/11/25 12:22:17;;;;;;;20.05;11.75;;;15.30;99.90;;;;;;5020310;28;20129;-30
2022/11/25 12:25:11;;;;;;;15.73;6.38;;;14.90;99.90;;;;;;5048135;28;20040;-28
2022/11/25 12:27:53;;;;;;;8.02;3.58;;;14.60;99.90;;;;;;5030485;28;20065;-27
2022/11/25 12:30:21;;;;;;;6.10;3.45;;;14.40;99.90;;;;;;5034831;28;20390;-29
2022/11/25 12:32:57;;;;;;;8.27;3.17;;;14.20;99.90;;;;;;5035730;28;20414;-28
2022/11/25 12:35:38;;;;;;;11.13;3.03;;;14.00;99.90;;;;;;5042852;28;20445;-27
2022/11/25 12:38:24;;;;;;;7.43;2.80;;;13.90;99.90;;;;;;5038591;28;20121;-29
2022/11/25 12:41:00;;;;;;;9.38;2.50;;;13.80;99.90;;;;;;5057756;28;20045;-29
2022/11/25 12:43:41;;;;;;;9.70;2.88;;;13.80;99.90;;;;;;5037036;28;20471;-28
2022/11/25 12:46:20;;;;;;;9.07;3.10;;;14.00;99.90;;;;;;5052354;28;20029;-27
2022/11/25 12:48:46;;;;;;;5.93;2.63;;;14.50;99.90;;;;;;5036687;28;20474;-28
2022/11/25 12:51:32;;;;;;;6.40;2.95;;;15.10;99.90;;;;;;5041497;28;20045;-30
2022/11/25 12:54:12;;;;;;;7.47;2.50;;;15.50;99.90;;;;;;5035039;28;20501;-29
2022/11/25 12:56:46;;;;;;;7.65;2.85;;;15.60;99.90;;;;;;5034672;28;20041;-27
2022/11/25 12:59:24;;;;;;;8.82;3.15;;;15.40;99.90;;;;;;5049313;28;20041;-29
2022/11/25 13:04:31;;;;;;;9.00;2.97;;;14.70;99.90;;;;;;5030213;26;20034;-84
2022/11/25 13:07:18;;;;;;;10.05;4.25;;;14.50;99.90;;;;;;5015619;28;20037;-85
2022/11/25 13:10:02;;;;;;;10.05;3.58;;;14.20;99.90;;;;;;5012164;28;20401;-86
2022/11/25 13:12:49;;;;;;;7.88;3.13;;;14.10;99.90;;;;;;5030720;28;20040;-85
2022/11/25 13:15:17;;;;;;;9.35;2.78;;;14.00;99.90;;;;;;5024140;28;20045;-86
2022/11/25 13:17:48;;;;;;;10.02;3.65;;;13.70;99.90;;;;;;5023607;28;20041;-87
2022/11/25 13:20:35;;;;;;;9.38;2.40;;;13.70;99.90;;;;;;5022393;28;20409;-88
2022/11/25 13:23:18;;;;;;;9.75;2.88;;;13.60;99.90;;;;;;5027378;28;20038;-84